createdAt,value
2017-04-23T00:00:08.092Z,11.07
2017-04-23T00:00:48.612Z,11.04
2017-04-23T00:01:29.085Z,10.99
2017-04-23T00:02:09.585Z,11
2017-04-23T00:02:50.106Z,10.92
2017-04-23T00:03:30.642Z,10.92
2017-04-23T00:04:11.251Z,10.99
2017-04-23T00:04:51.782Z,10.94
2017-04-23T00:05:32.254Z,10.92
2017-04-23T00:06:12.732Z,10.92
2017-04-23T00:06:53.207Z,10.91
2017-04-23T00:07:33.707Z,10.94
2017-04-23T00:08:14.213Z,10.97
2017-04-23T00:08:54.705Z,11.17
2017-04-23T00:09:35.164Z,11.22
2017-04-23T00:10:15.655Z,11.17
2017-04-23T00:10:56.142Z,11.18
2017-04-23T00:11:36.622Z,11.18
2017-04-23T00:12:17.117Z,11.28
2017-04-23T00:12:57.601Z,11.32
2017-04-23T00:13:38.087Z,11.28
2017-04-23T00:14:18.588Z,11.33
2017-04-23T00:14:59.060Z,11.33
2017-04-23T00:15:39.531Z,11.32
2017-04-23T00:16:20.022Z,11.4
2017-04-23T00:17:00.548Z,11.33
2017-04-23T00:17:41.237Z,11.42
2017-04-23T00:18:21.714Z,11.37
2017-04-23T00:19:02.218Z,11.44
2017-04-23T00:19:42.729Z,11.43
2017-04-23T00:20:23.249Z,11.35
2017-04-23T00:21:03.720Z,11.32
2017-04-23T00:21:44.264Z,11.37
2017-04-23T00:22:24.726Z,11.33
2017-04-23T00:23:05.238Z,11.35
2017-04-23T00:23:45.702Z,11.32
2017-04-23T00:24:26.262Z,11.36
2017-04-23T00:25:06.796Z,11.29
2017-04-23T00:25:47.298Z,11.36
2017-04-23T00:26:27.756Z,11.33
2017-04-23T00:27:08.297Z,11.32
2017-04-23T00:27:48.836Z,11.21
2017-04-23T00:28:29.369Z,11.18
2017-04-23T00:29:09.875Z,11.19
2017-04-23T00:29:50.351Z,11.18
2017-04-23T00:30:30.842Z,11.14
2017-04-23T00:31:11.332Z,11.19
2017-04-23T00:31:51.813Z,11.15
2017-04-23T00:32:32.332Z,11.14
2017-04-23T00:33:12.817Z,11.14
2017-04-23T00:33:53.338Z,11.17
2017-04-23T00:34:33.840Z,11.18
2017-04-23T00:35:14.257Z,11.27
2017-04-23T00:35:54.783Z,11.17
2017-04-23T00:36:35.260Z,11.19
2017-04-23T00:37:15.733Z,11.06
2017-04-23T00:37:56.235Z,11.04
2017-04-23T00:38:36.716Z,11.18
2017-04-23T00:39:17.240Z,11.18
2017-04-23T00:39:57.710Z,11.18
2017-04-23T00:40:38.195Z,11.25
2017-04-23T00:41:18.668Z,11.17
2017-04-23T00:41:59.186Z,11.14
2017-04-23T00:42:39.681Z,11.04
2017-04-23T00:43:20.205Z,11.09
2017-04-23T00:44:00.701Z,11
2017-04-23T00:44:41.154Z,10.97
2017-04-23T00:45:21.679Z,11.02
2017-04-23T00:46:02.163Z,10.94
2017-04-23T00:46:42.686Z,10.96
2017-04-23T00:47:23.189Z,10.96
2017-04-23T00:48:03.646Z,11
2017-04-23T00:48:44.139Z,11.02
2017-04-23T00:49:24.682Z,11.1
2017-04-23T00:50:05.170Z,11
2017-04-23T00:52:18.368Z,10.89
2017-04-23T00:52:58.873Z,10.86
2017-04-23T00:53:39.390Z,10.81
2017-04-23T00:54:19.879Z,10.82
2017-04-23T00:55:00.383Z,10.92
2017-04-23T00:55:40.888Z,10.88
2017-04-23T00:56:21.404Z,10.92
2017-04-23T00:57:01.890Z,10.81
2017-04-23T00:57:42.393Z,10.94
2017-04-23T00:58:22.886Z,10.96
2017-04-23T00:59:03.372Z,10.79
2017-04-23T00:59:43.862Z,10.86
2017-04-23T01:00:24.353Z,10.85
2017-04-23T01:01:04.866Z,10.81
2017-04-23T01:01:45.350Z,10.84
2017-04-23T01:02:25.821Z,10.84
2017-04-23T01:03:06.324Z,10.94
2017-04-23T01:03:46.810Z,11
2017-04-23T01:04:27.316Z,11.02
2017-04-23T01:05:07.804Z,11.02
2017-04-23T01:05:48.305Z,11.02
2017-04-23T01:06:28.798Z,10.99
2017-04-23T01:07:09.302Z,10.94
2017-04-23T01:07:49.792Z,10.94
2017-04-23T01:08:30.254Z,10.99
2017-04-23T01:09:10.804Z,10.97
2017-04-23T01:09:51.278Z,10.92
2017-04-23T01:10:31.760Z,10.79
2017-04-23T01:11:12.293Z,10.78
2017-04-23T01:11:52.776Z,10.91
2017-04-23T01:12:33.272Z,10.82
2017-04-23T01:13:13.761Z,10.97
2017-04-23T01:13:54.260Z,10.86
2017-04-23T01:14:34.788Z,10.82
2017-04-23T01:15:15.270Z,10.82
2017-04-23T01:15:55.806Z,10.79
2017-04-23T01:16:36.260Z,10.85
2017-04-23T01:17:16.755Z,10.96
2017-04-23T01:17:57.211Z,10.89
2017-04-23T01:18:37.733Z,10.89
2017-04-23T01:19:18.193Z,10.97
2017-04-23T01:19:58.708Z,10.85
2017-04-23T01:20:39.181Z,10.79
2017-04-23T01:21:19.658Z,10.79
2017-04-23T01:22:00.121Z,10.94
2017-04-23T01:22:40.626Z,10.94
2017-04-23T01:23:21.117Z,11.03
2017-04-23T01:24:01.626Z,10.94
2017-04-23T01:24:42.165Z,10.97
2017-04-23T01:25:22.625Z,10.92
2017-04-23T01:26:03.145Z,11.03
2017-04-23T01:26:43.623Z,10.99
2017-04-23T01:27:24.149Z,10.96
2017-04-23T01:28:04.634Z,10.96
2017-04-23T01:28:45.133Z,10.94
2017-04-23T01:29:25.620Z,10.97
2017-04-23T01:30:06.097Z,11.09
2017-04-23T01:30:46.612Z,11.04
2017-04-23T01:31:27.124Z,10.96
2017-04-23T01:32:07.585Z,10.96
2017-04-23T01:32:48.085Z,10.91
2017-04-23T01:33:28.614Z,10.89
2017-04-23T01:34:09.108Z,10.91
2017-04-23T01:34:49.618Z,10.97
2017-04-23T01:35:30.096Z,10.94
2017-04-23T01:36:10.613Z,10.91
2017-04-23T01:36:51.082Z,10.92
2017-04-23T01:37:31.598Z,10.94
2017-04-23T01:38:12.255Z,10.96
2017-04-23T01:38:52.809Z,11
2017-04-23T01:39:33.282Z,10.96
2017-04-23T01:40:13.796Z,11.02
2017-04-23T01:40:54.299Z,10.99
2017-04-23T01:41:34.797Z,10.91
2017-04-23T01:42:15.302Z,10.91
2017-04-23T01:42:55.741Z,10.97
2017-04-23T01:43:36.252Z,10.97
2017-04-23T01:44:16.748Z,10.96
2017-04-23T01:44:57.216Z,10.96
2017-04-23T01:45:37.728Z,10.99
2017-04-23T01:46:18.209Z,10.94
2017-04-23T01:46:58.706Z,10.96
2017-04-23T01:47:39.213Z,10.96
2017-04-23T01:48:19.660Z,11
2017-04-23T01:49:00.178Z,10.96
2017-04-23T01:49:40.624Z,11.09
2017-04-23T01:50:21.135Z,11.07
2017-04-23T01:51:01.646Z,11.06
2017-04-23T01:51:42.116Z,11.11
2017-04-23T01:52:22.600Z,11.11
2017-04-23T01:53:03.109Z,11.11
2017-04-23T01:53:43.640Z,11.1
2017-04-23T01:54:24.122Z,10.94
2017-04-23T01:55:04.605Z,10.94
2017-04-23T01:55:45.091Z,10.92
2017-04-23T01:56:25.591Z,10.89
2017-04-23T01:57:06.112Z,10.85
2017-04-23T01:57:46.613Z,10.79
2017-04-23T01:58:27.119Z,10.82
2017-04-23T01:59:07.607Z,10.7
2017-04-23T01:59:48.131Z,10.74
2017-04-23T02:00:28.613Z,10.79
2017-04-23T02:01:09.084Z,10.88
2017-04-23T02:01:49.579Z,10.84
2017-04-23T02:02:30.097Z,10.78
2017-04-23T02:03:10.548Z,10.81
2017-04-23T02:03:51.014Z,10.73
2017-04-23T02:04:31.529Z,10.73
2017-04-23T02:05:12.011Z,10.76
2017-04-23T02:05:52.564Z,10.56
2017-04-23T02:06:33.014Z,10.6
2017-04-23T02:07:13.489Z,10.59
2017-04-23T02:07:53.989Z,10.53
2017-04-23T02:08:34.484Z,10.6
2017-04-23T02:09:15.038Z,10.73
2017-04-23T02:09:55.485Z,10.52
2017-04-23T02:10:36.018Z,10.59
2017-04-23T02:11:16.489Z,10.67
2017-04-23T02:11:57.004Z,10.55
2017-04-23T02:12:37.505Z,10.63
2017-04-23T02:13:18.106Z,10.63
2017-04-23T02:13:58.592Z,10.6
2017-04-23T02:14:39.083Z,10.66
2017-04-23T02:15:19.577Z,10.61
2017-04-23T02:16:00.082Z,10.59
2017-04-23T02:16:40.564Z,10.66
2017-04-23T02:17:21.045Z,10.63
2017-04-23T02:18:01.588Z,10.68
2017-04-23T02:18:42.041Z,10.55
2017-04-23T02:19:22.597Z,10.53
2017-04-23T02:20:03.106Z,10.56
2017-04-23T02:20:43.572Z,10.7
2017-04-23T02:21:24.097Z,10.64
2017-04-23T02:22:04.573Z,10.63
2017-04-23T02:22:45.056Z,10.64
2017-04-23T02:23:25.546Z,10.64
2017-04-23T02:24:06.027Z,10.51
2017-04-23T02:24:46.483Z,10.48
2017-04-23T02:25:26.980Z,10.48
2017-04-23T02:26:07.525Z,10.64
2017-04-23T02:26:47.944Z,10.56
2017-04-23T02:27:28.473Z,10.64
2017-04-23T02:28:08.978Z,10.55
2017-04-23T02:28:49.471Z,10.59
2017-04-23T02:29:29.934Z,10.61
2017-04-23T02:30:10.434Z,10.61
2017-04-23T02:30:50.905Z,10.79
2017-04-23T02:31:31.385Z,10.71
2017-04-23T02:32:11.915Z,10.7
2017-04-23T02:32:52.395Z,10.63
2017-04-23T02:33:32.907Z,10.61
2017-04-23T02:34:13.383Z,10.53
2017-04-23T02:34:53.908Z,10.55
2017-04-23T02:35:34.392Z,10.59
2017-04-23T02:36:14.923Z,10.67
2017-04-23T02:36:55.432Z,10.67
2017-04-23T02:37:35.916Z,10.63
2017-04-23T02:38:16.413Z,10.56
2017-04-23T02:38:56.909Z,10.63
2017-04-23T02:39:37.370Z,10.63
2017-04-23T02:40:17.904Z,10.59
2017-04-23T02:40:58.399Z,10.53
2017-04-23T02:41:38.923Z,10.48
2017-04-23T02:42:19.419Z,10.51
2017-04-23T02:42:59.871Z,10.52
2017-04-23T02:43:40.367Z,10.48
2017-04-23T02:44:20.805Z,10.61
2017-04-23T02:45:01.317Z,10.48
2017-04-23T02:45:41.817Z,10.52
2017-04-23T02:46:22.278Z,10.56
2017-04-23T02:47:02.790Z,10.6
2017-04-23T02:47:43.269Z,10.51
2017-04-23T02:48:23.786Z,10.53
2017-04-23T02:49:04.263Z,10.56
2017-04-23T02:49:44.768Z,10.59
2017-04-23T02:50:25.250Z,10.61
2017-04-23T02:51:05.755Z,10.61
2017-04-23T02:51:46.246Z,10.56
2017-04-23T02:52:26.749Z,10.68
2017-04-23T02:53:07.251Z,10.59
2017-04-23T02:53:47.770Z,10.68
2017-04-23T02:54:28.272Z,10.76
2017-04-23T02:55:08.809Z,10.7
2017-04-23T02:55:49.320Z,10.79
2017-04-23T02:56:29.771Z,10.73
2017-04-23T02:57:10.334Z,10.73
2017-04-23T02:57:50.782Z,10.55
2017-04-23T02:58:31.307Z,10.63
2017-04-23T02:59:11.781Z,10.7
2017-04-23T02:59:52.306Z,10.68
2017-04-23T03:00:32.745Z,10.64
2017-04-23T03:01:13.243Z,10.6
2017-04-23T03:01:53.771Z,10.61
2017-04-23T03:02:34.251Z,10.59
2017-04-23T03:03:14.761Z,10.48
2017-04-23T03:03:55.210Z,10.6
2017-04-23T03:04:35.709Z,10.4
2017-04-23T03:05:16.179Z,10.4
2017-04-23T03:05:56.675Z,10.61
2017-04-23T03:06:37.218Z,10.52
2017-04-23T03:07:17.711Z,10.48
2017-04-23T03:07:58.188Z,10.51
2017-04-23T03:08:38.730Z,10.52
2017-04-23T03:09:19.218Z,10.53
2017-04-23T03:09:59.679Z,10.51
2017-04-23T03:10:40.170Z,10.6
2017-04-23T03:11:20.658Z,10.61
2017-04-23T03:12:01.182Z,10.67
2017-04-23T03:12:41.672Z,10.53
2017-04-23T03:13:22.161Z,10.53
2017-04-23T03:14:02.635Z,10.63
2017-04-23T03:14:43.156Z,10.61
2017-04-23T03:15:23.678Z,10.61
2017-04-23T03:16:04.128Z,10.53
2017-04-23T03:16:44.632Z,10.55
2017-04-23T03:17:25.098Z,10.61
2017-04-23T03:18:05.578Z,10.64
2017-04-23T03:18:46.081Z,10.6
2017-04-23T03:19:26.600Z,10.67
2017-04-23T03:20:07.116Z,10.66
2017-04-23T03:20:47.553Z,10.56
2017-04-23T03:21:28.045Z,10.44
2017-04-23T03:22:08.589Z,10.29
2017-04-23T03:22:49.061Z,10.33
2017-04-23T03:23:29.540Z,10.26
2017-04-23T03:24:10.059Z,10.22
2017-04-23T03:24:50.538Z,10.15
2017-04-23T03:25:31.044Z,10.18
2017-04-23T03:26:11.516Z,10.14
2017-04-23T03:26:52.000Z,10.04
2017-04-23T03:27:32.492Z,10.04
2017-04-23T03:28:12.986Z,10.11
2017-04-23T03:28:53.492Z,10.11
2017-04-23T03:29:34.001Z,10.04
2017-04-23T03:30:14.468Z,10.02
2017-04-23T03:30:54.952Z,10.07
2017-04-23T03:31:35.436Z,10.07
2017-04-23T03:32:15.921Z,10.11
2017-04-23T03:32:56.439Z,10.17
2017-04-23T03:33:36.939Z,10.2
2017-04-23T03:34:17.432Z,10.17
2017-04-23T03:34:57.874Z,10.29
2017-04-23T03:35:38.375Z,10.29
2017-04-23T03:36:18.879Z,10.29
2017-04-23T03:36:59.407Z,10.32
2017-04-23T03:37:39.891Z,10.22
2017-04-23T03:38:20.417Z,10.18
2017-04-23T03:39:00.930Z,10.08
2017-04-23T03:39:41.406Z,10.01
2017-04-23T03:40:21.909Z,10.01
2017-04-23T03:41:02.440Z,10.01
2017-04-23T03:41:42.892Z,10.09
2017-04-23T03:42:23.408Z,10.07
2017-04-23T03:43:03.956Z,10.12
2017-04-23T03:43:44.438Z,10.07
2017-04-23T03:44:24.927Z,10.01
2017-04-23T03:45:05.454Z,10.01
2017-04-23T03:45:45.955Z,9.99
2017-04-23T03:46:26.434Z,10.07
2017-04-23T03:47:06.894Z,10.02
2017-04-23T03:47:47.401Z,9.93
2017-04-23T03:48:27.944Z,9.96
2017-04-23T03:49:08.413Z,9.99
2017-04-23T03:49:48.875Z,9.99
2017-04-23T03:50:29.394Z,9.91
2017-04-23T03:51:09.917Z,9.9
2017-04-23T03:51:50.369Z,9.97
2017-04-23T03:52:30.837Z,9.94
2017-04-23T03:53:11.323Z,10.11
2017-04-23T03:53:51.853Z,10.11
2017-04-23T03:54:32.324Z,10.07
2017-04-23T03:55:12.847Z,10.11
2017-04-23T03:55:53.314Z,10.08
2017-04-23T03:56:33.874Z,10.07
2017-04-23T03:57:14.290Z,10.09
2017-04-23T03:57:54.793Z,10.04
2017-04-23T03:58:35.277Z,10.08
2017-04-23T03:59:15.844Z,9.96
2017-04-23T03:59:56.285Z,10.02
2017-04-23T04:00:36.802Z,10.05
2017-04-23T04:01:17.286Z,10.09
2017-04-23T04:01:57.783Z,9.97
2017-04-23T04:02:38.219Z,10.01
2017-04-23T04:03:18.701Z,9.99
2017-04-23T04:03:59.267Z,9.89
2017-04-23T04:04:39.806Z,9.94
2017-04-23T04:05:20.282Z,9.94
2017-04-23T04:06:00.798Z,9.96
2017-04-23T04:06:41.272Z,10.02
2017-04-23T04:07:21.775Z,10.01
2017-04-23T04:08:02.270Z,9.99
2017-04-23T04:08:42.841Z,9.96
2017-04-23T04:09:23.350Z,10.01
2017-04-23T04:10:03.826Z,9.9
2017-04-23T04:10:44.296Z,9.83
2017-04-23T04:11:24.818Z,9.9
2017-04-23T04:12:05.339Z,9.84
2017-04-23T04:12:45.815Z,9.84
2017-04-23T04:13:26.311Z,9.75
2017-04-23T04:14:06.838Z,9.74
2017-04-23T04:14:47.288Z,9.69
2017-04-23T04:15:27.768Z,9.78
2017-04-23T04:16:08.284Z,9.74
2017-04-23T04:16:48.821Z,9.65
2017-04-23T04:17:29.266Z,9.71
2017-04-23T04:18:09.759Z,9.74
2017-04-23T04:18:50.250Z,9.75
2017-04-23T04:19:30.750Z,9.76
2017-04-23T04:20:11.212Z,9.79
2017-04-23T04:20:51.747Z,9.83
2017-04-23T04:21:32.225Z,9.78
2017-04-23T04:22:12.729Z,9.78
2017-04-23T04:22:53.184Z,9.84
2017-04-23T04:23:33.675Z,9.78
2017-04-23T04:24:14.196Z,9.83
2017-04-23T04:24:54.672Z,9.94
2017-04-23T04:25:35.164Z,9.81
2017-04-23T04:26:15.667Z,9.87
2017-04-23T04:26:56.186Z,9.93
2017-04-23T04:27:36.698Z,9.93
2017-04-23T04:28:17.283Z,9.96
2017-04-23T04:28:57.653Z,9.94
2017-04-23T04:29:38.155Z,10.02
2017-04-23T04:30:18.677Z,9.99
2017-04-23T04:30:59.140Z,9.94
2017-04-23T04:31:39.667Z,10.05
2017-04-23T04:32:20.176Z,9.97
2017-04-23T04:33:00.632Z,9.86
2017-04-23T04:33:41.142Z,9.9
2017-04-23T04:34:21.655Z,9.96
2017-04-23T04:35:02.118Z,9.97
2017-04-23T04:35:42.646Z,9.97
2017-04-23T04:36:23.115Z,9.79
2017-04-23T04:37:03.571Z,9.81
2017-04-23T04:37:44.068Z,9.74
2017-04-23T04:38:24.533Z,9.83
2017-04-23T04:39:05.010Z,9.87
2017-04-23T04:39:45.604Z,9.91
2017-04-23T04:40:26.019Z,9.96
2017-04-23T04:41:06.506Z,9.96
2017-04-23T04:41:46.989Z,10.09
2017-04-23T04:42:27.433Z,10.09
2017-04-23T04:43:07.908Z,10.01
2017-04-23T04:43:48.438Z,10.07
2017-04-23T04:44:29.024Z,10.12
2017-04-23T04:45:09.452Z,9.96
2017-04-23T04:45:49.880Z,10.02
2017-04-23T04:46:30.391Z,10.12
2017-04-23T04:47:10.855Z,10.01
2017-04-23T04:47:51.370Z,10.08
2017-04-23T04:48:31.822Z,9.96
2017-04-23T04:49:12.315Z,9.94
2017-04-23T04:49:52.844Z,9.97
2017-04-23T04:50:33.372Z,9.9
2017-04-23T04:51:13.887Z,9.89
2017-04-23T04:51:54.400Z,9.96
2017-04-23T04:52:34.915Z,9.93
2017-04-23T04:53:15.382Z,9.99
2017-04-23T04:53:55.872Z,9.96
2017-04-23T04:54:36.356Z,10.09
2017-04-23T04:55:16.813Z,10.02
2017-04-23T04:55:57.329Z,10.08
2017-04-23T04:56:37.822Z,10.01
2017-04-23T04:57:18.302Z,10.01
2017-04-23T04:57:58.833Z,10.17
2017-04-23T04:58:39.204Z,10.18
2017-04-23T04:59:19.712Z,10.11
2017-04-23T05:00:00.248Z,10.17
2017-04-23T05:00:40.729Z,10.12
2017-04-23T05:01:21.237Z,10.26
2017-04-23T05:02:01.740Z,10.15
2017-04-23T05:02:42.256Z,10.33
2017-04-23T05:03:22.698Z,10.3
2017-04-23T05:04:03.211Z,10.36
2017-04-23T05:04:43.696Z,10.3
2017-04-23T05:05:24.158Z,10.34
2017-04-23T05:06:04.640Z,10.3
2017-04-23T05:06:45.148Z,10.33
2017-04-23T05:07:25.628Z,10.38
2017-04-23T05:08:06.132Z,10.34
2017-04-23T05:08:46.639Z,10.34
2017-04-23T05:09:27.112Z,10.4
2017-04-23T05:10:07.637Z,10.36
2017-04-23T05:10:48.099Z,10.36
2017-04-23T05:11:28.588Z,10.4
2017-04-23T05:12:09.084Z,10.36
2017-04-23T05:12:49.557Z,10.4
2017-04-23T05:13:30.093Z,10.42
2017-04-23T05:14:10.568Z,10.42
2017-04-23T05:14:51.039Z,10.47
2017-04-23T05:15:31.598Z,10.47
2017-04-23T05:16:12.064Z,10.55
2017-04-23T05:16:52.551Z,10.47
2017-04-23T05:17:33.042Z,10.4
2017-04-23T05:18:13.549Z,10.52
2017-04-23T05:18:54.047Z,10.52
2017-04-23T05:19:34.514Z,10.56
2017-04-23T05:20:15.062Z,10.55
2017-04-23T05:20:55.529Z,10.61
2017-04-23T05:21:36.028Z,10.51
2017-04-23T05:22:16.519Z,10.61
2017-04-23T05:22:57.035Z,10.48
2017-04-23T05:23:37.564Z,10.52
2017-04-23T05:24:18.039Z,10.61
2017-04-23T05:24:58.539Z,10.63
2017-04-23T05:25:39.060Z,10.61
2017-04-23T05:26:19.530Z,10.56
2017-04-23T05:26:59.987Z,10.71
2017-04-23T05:27:40.500Z,10.74
2017-04-23T05:28:20.999Z,10.55
2017-04-23T05:29:01.558Z,10.6
2017-04-23T05:29:42.074Z,10.64
2017-04-23T05:30:22.538Z,10.66
2017-04-23T05:31:03.024Z,10.63
2017-04-23T05:31:43.472Z,10.66
2017-04-23T05:32:23.980Z,10.61
2017-04-23T05:33:04.486Z,10.64
2017-04-23T05:33:44.971Z,10.64
2017-04-23T05:34:25.478Z,10.68
2017-04-23T05:35:06.005Z,10.64
2017-04-23T05:37:05.170Z,10.82
2017-04-23T05:37:45.654Z,10.79
2017-04-23T05:38:26.157Z,10.71
2017-04-23T05:39:06.656Z,10.86
2017-04-23T05:39:47.174Z,10.92
2017-04-23T05:40:27.713Z,10.94
2017-04-23T05:41:08.137Z,10.99
2017-04-23T05:41:48.661Z,11.1
2017-04-23T05:42:29.159Z,11.1
2017-04-23T05:43:09.658Z,11.22
2017-04-23T05:43:50.180Z,11.17
2017-04-23T05:44:30.784Z,11.28
2017-04-23T05:45:11.256Z,11.42
2017-04-23T05:45:51.825Z,11.36
2017-04-23T05:46:34.191Z,11.4
2017-04-23T05:47:14.711Z,11.4
2017-04-23T05:47:55.182Z,11.47
2017-04-23T05:48:35.633Z,11.39
2017-04-23T05:49:16.157Z,11.35
2017-04-23T05:49:56.783Z,11.29
2017-04-23T05:50:37.290Z,11.29
2017-04-23T05:51:17.766Z,11.18
2017-04-23T05:51:58.224Z,11.02
2017-04-23T05:52:38.770Z,11.1
2017-04-23T05:53:19.187Z,11.06
2017-04-23T05:53:59.739Z,10.99
2017-04-23T05:54:40.233Z,10.99
2017-04-23T05:55:20.710Z,11.02
2017-04-23T05:56:01.238Z,11.11
2017-04-23T05:56:41.703Z,10.97
2017-04-23T05:57:22.204Z,11.02
2017-04-23T05:58:02.738Z,10.94
2017-04-23T05:58:43.248Z,10.92
2017-04-23T05:59:23.722Z,10.99
2017-04-23T06:00:04.197Z,11.07
2017-04-23T06:00:44.697Z,11.03
2017-04-23T06:01:25.178Z,10.94
2017-04-23T06:02:05.686Z,10.94
2017-04-23T06:02:46.164Z,10.88
2017-04-23T06:03:26.692Z,11.02
2017-04-23T06:04:07.188Z,11
2017-04-23T06:04:47.645Z,11.06
2017-04-23T06:05:28.144Z,11.15
2017-04-23T06:06:08.647Z,11.22
2017-04-23T06:06:49.163Z,11.17
2017-04-23T06:07:29.650Z,11.19
2017-04-23T06:08:10.469Z,11.19
2017-04-23T06:08:50.929Z,11.18
2017-04-23T06:09:31.420Z,10.96
2017-04-23T06:10:11.885Z,11.19
2017-04-23T06:10:52.415Z,11.32
2017-04-23T06:11:32.900Z,11.24
2017-04-23T06:12:13.376Z,11.19
2017-04-23T06:12:53.840Z,11.03
2017-04-23T06:13:34.385Z,11.11
2017-04-23T06:14:14.847Z,11.09
2017-04-23T06:14:55.387Z,11.09
2017-04-23T06:15:35.906Z,11.22
2017-04-23T06:16:16.440Z,11.19
2017-04-23T06:16:56.972Z,11.32
2017-04-23T06:17:37.462Z,11.35
2017-04-23T06:18:17.962Z,11.33
2017-04-23T06:18:58.526Z,11.32
2017-04-23T06:19:39.017Z,11.37
2017-04-23T06:20:19.490Z,11.37
2017-04-23T06:20:59.978Z,11.39
2017-04-23T06:21:40.493Z,11.44
2017-04-23T06:22:20.925Z,11.52
2017-04-23T06:23:01.450Z,11.51
2017-04-23T06:23:42.015Z,11.51
2017-04-23T06:24:22.669Z,11.54
2017-04-23T06:25:03.271Z,11.58
2017-04-23T06:25:43.783Z,11.49
2017-04-23T06:26:24.493Z,11.52
2017-04-23T06:27:05.023Z,11.39
2017-04-23T06:27:45.481Z,11.57
2017-04-23T06:28:25.947Z,11.51
2017-04-23T06:29:06.493Z,11.52
2017-04-23T06:29:46.965Z,11.52
2017-04-23T06:30:27.475Z,11.37
2017-04-23T06:31:07.995Z,11.51
2017-04-23T06:31:48.646Z,11.57
2017-04-23T06:32:29.468Z,11.44
2017-04-23T06:33:10.036Z,11.39
2017-04-23T06:33:50.592Z,11.54
2017-04-23T06:34:31.609Z,11.51
2017-04-23T06:35:12.152Z,11.57
2017-04-23T06:35:52.631Z,11.64
2017-04-23T06:36:33.160Z,11.69
2017-04-23T06:37:13.670Z,11.69
2017-04-23T06:37:54.124Z,11.65
2017-04-23T06:38:34.574Z,11.58
2017-04-23T06:39:15.136Z,11.64
2017-04-23T06:39:55.625Z,11.73
2017-04-23T06:40:36.121Z,11.73
2017-04-23T06:41:16.635Z,11.83
2017-04-23T06:41:57.105Z,11.91
2017-04-23T06:42:37.653Z,11.95
2017-04-23T06:43:18.118Z,11.94
2017-04-23T06:43:58.634Z,11.99
2017-04-23T06:44:39.081Z,11.98
2017-04-23T06:45:19.591Z,12.14
2017-04-23T06:46:00.084Z,12.31
2017-04-23T06:46:40.525Z,12.42
2017-04-23T06:47:21.074Z,12.52
2017-04-23T06:48:01.515Z,12.53
2017-04-23T06:48:42.009Z,12.59
2017-04-23T06:49:22.516Z,12.62
2017-04-23T06:50:03.051Z,12.79
2017-04-23T06:50:43.504Z,12.74
2017-04-23T06:51:23.988Z,12.79
2017-04-23T06:52:04.471Z,12.71
2017-04-23T06:52:45.015Z,12.86
2017-04-23T06:53:25.524Z,12.87
2017-04-23T06:54:05.982Z,12.93
2017-04-23T06:54:46.560Z,12.92
2017-04-23T06:55:27.003Z,13
2017-04-23T06:56:07.489Z,12.95
2017-04-23T06:56:48.002Z,12.86
2017-04-23T06:57:28.459Z,12.96
2017-04-23T06:58:08.933Z,12.71
2017-04-23T06:58:49.417Z,12.83
2017-04-23T06:59:29.912Z,12.9
2017-04-23T07:00:10.453Z,13.04
2017-04-23T07:00:50.970Z,12.95
2017-04-23T07:01:31.550Z,12.95
2017-04-23T07:02:11.935Z,12.93
2017-04-23T07:02:52.453Z,12.96
2017-04-23T07:03:32.965Z,13.08
2017-04-23T07:04:13.429Z,13.1
2017-04-23T07:04:53.943Z,13.25
2017-04-23T07:05:34.459Z,13.41
2017-04-23T07:06:14.938Z,13.32
2017-04-23T07:06:55.422Z,13.42
2017-04-23T07:07:35.962Z,13.42
2017-04-23T07:09:33.594Z,13.57
2017-04-23T07:10:14.115Z,13.59
2017-04-23T07:10:54.632Z,13.55
2017-04-23T07:11:35.163Z,13.59
2017-04-23T07:12:15.687Z,13.19
2017-04-23T07:12:56.205Z,12.97
2017-04-23T07:13:36.739Z,13.11
2017-04-23T07:14:17.256Z,13.26
2017-04-23T07:14:57.770Z,13.41
2017-04-23T07:15:38.300Z,13.52
2017-04-23T07:16:18.820Z,13.2
2017-04-23T07:16:59.320Z,12.95
2017-04-23T07:17:39.841Z,12.77
2017-04-23T07:18:20.380Z,12.74
2017-04-23T07:19:00.890Z,12.71
2017-04-23T07:19:41.454Z,12.89
2017-04-23T07:20:21.984Z,12.96
2017-04-23T07:21:02.511Z,12.86
2017-04-23T07:21:43.041Z,13.07
2017-04-23T07:22:23.553Z,13.1
2017-04-23T07:23:04.064Z,12.97
2017-04-23T07:23:44.580Z,12.97
2017-04-23T07:24:25.106Z,13
2017-04-23T07:25:05.634Z,13.01
2017-04-23T07:25:46.147Z,12.97
2017-04-23T07:26:26.668Z,13.08
2017-04-23T07:27:07.192Z,13.17
2017-04-23T07:27:47.719Z,13.32
2017-04-23T07:28:28.292Z,13.44
2017-04-23T07:29:08.851Z,13.44
2017-04-23T07:29:49.447Z,13.55
2017-04-23T07:30:29.913Z,13.57
2017-04-23T07:31:10.424Z,13.57
2017-04-23T07:31:50.934Z,13.55
2017-04-23T07:32:31.464Z,13.49
2017-04-23T07:33:11.983Z,13.63
2017-04-23T07:33:52.501Z,13.32
2017-04-23T07:34:33.012Z,13.38
2017-04-23T07:35:13.513Z,13.36
2017-04-23T07:35:54.034Z,13.01
2017-04-23T07:36:34.557Z,13.11
2017-04-23T07:37:15.078Z,13.28
2017-04-23T07:37:55.589Z,13.29
2017-04-23T07:38:36.100Z,12.92
2017-04-23T07:39:16.593Z,12.75
2017-04-23T07:39:57.087Z,12.53
2017-04-23T07:40:37.604Z,12.39
2017-04-23T07:41:18.135Z,12.42
2017-04-23T07:41:58.674Z,12.28
2017-04-23T07:42:39.227Z,12.09
2017-04-23T07:43:19.699Z,12.04
2017-04-23T07:44:00.210Z,12.27
2017-04-23T07:44:40.735Z,12.37
2017-04-23T07:45:21.250Z,12.5
2017-04-23T07:46:01.839Z,12.54
2017-04-23T07:46:43.053Z,12.57
2017-04-23T07:47:23.790Z,12.67
2017-04-23T07:48:04.295Z,12.77
2017-04-23T07:48:44.730Z,13
2017-04-23T07:49:25.241Z,12.92
2017-04-23T07:50:05.771Z,13.07
2017-04-23T07:50:50.519Z,13.25
2017-04-23T07:51:33.078Z,13.05
2017-04-23T07:53:13.020Z,13.23
2017-04-23T07:53:53.478Z,13.23
2017-04-23T07:54:33.988Z,13.14
2017-04-23T07:55:14.435Z,13.1
2017-04-23T07:55:54.948Z,13.14
2017-04-23T07:56:35.499Z,13.07
2017-04-23T07:57:16.030Z,13.07
2017-04-23T07:57:56.571Z,13.12
2017-04-23T07:58:37.080Z,13.22
2017-04-23T07:59:17.553Z,13.14
2017-04-23T07:59:58.076Z,13.22
2017-04-23T08:00:38.614Z,13.23
2017-04-23T08:01:19.142Z,13.29
2017-04-23T08:01:59.659Z,13.25
2017-04-23T08:02:40.176Z,13.33
2017-04-23T08:03:20.683Z,13.44
2017-04-23T08:04:01.197Z,13.45
2017-04-23T08:04:41.716Z,13.46
2017-04-23T08:05:22.268Z,13.46
2017-04-23T08:06:02.753Z,13.48
2017-04-23T08:06:43.252Z,13.49
2017-04-23T08:07:23.718Z,13.46
2017-04-23T08:08:04.258Z,13.54
2017-04-23T08:08:44.758Z,13.46
2017-04-23T08:09:25.282Z,13.46
2017-04-23T08:10:05.785Z,13.26
2017-04-23T08:10:46.313Z,12.96
2017-04-23T08:11:26.989Z,12.77
2017-04-23T08:12:07.539Z,12.82
2017-04-23T08:12:48.076Z,12.93
2017-04-23T08:13:28.570Z,12.85
2017-04-23T08:14:08.989Z,12.79
2017-04-23T08:14:49.496Z,12.82
2017-04-23T08:15:30.017Z,12.82
2017-04-23T08:16:10.525Z,12.65
2017-04-23T08:16:51.383Z,12.62
2017-04-23T08:17:31.764Z,12.67
2017-04-23T08:18:12.334Z,12.7
2017-04-23T08:18:52.881Z,12.67
2017-04-23T08:19:33.903Z,12.74
2017-04-23T08:20:14.461Z,12.77
2017-04-23T08:20:54.963Z,12.83
2017-04-23T08:21:35.514Z,12.86
2017-04-23T08:22:16.086Z,12.82
2017-04-23T08:22:56.547Z,13.03
2017-04-23T08:23:39.145Z,12.83
2017-04-23T08:24:20.146Z,12.79
2017-04-23T08:25:00.713Z,12.9
2017-04-23T08:25:41.126Z,12.9
2017-04-23T08:26:21.815Z,13.12
2017-04-23T08:27:02.626Z,13.01
2017-04-23T08:27:42.994Z,13.05
2017-04-23T08:28:23.684Z,13.15
2017-04-23T08:29:04.880Z,13.2
2017-04-23T08:29:45.296Z,13.08
2017-04-23T08:30:25.796Z,13.29
2017-04-23T08:31:06.274Z,13.22
2017-04-23T08:31:46.803Z,13.33
2017-04-23T08:32:27.258Z,13.28
2017-04-23T08:33:07.733Z,13.17
2017-04-23T08:33:48.255Z,13.33
2017-04-23T08:34:28.836Z,13.26
2017-04-23T08:35:09.597Z,13.45
2017-04-23T08:35:50.029Z,13.45
2017-04-23T08:36:30.455Z,13.28
2017-04-23T08:37:10.987Z,13.41
2017-04-23T08:37:51.564Z,13.45
2017-04-23T08:38:32.212Z,13.49
2017-04-23T08:39:12.964Z,13.48
2017-04-23T08:39:53.514Z,13.3
2017-04-23T08:40:34.089Z,13.39
2017-04-23T08:41:14.738Z,13.36
2017-04-23T08:41:55.236Z,13.45
2017-04-23T08:42:35.755Z,13.52
2017-04-23T08:43:16.426Z,13.55
2017-04-23T08:43:57.020Z,13.45
2017-04-23T08:44:37.456Z,13.45
2017-04-23T08:45:17.978Z,13.45
2017-04-23T08:45:58.460Z,13.55
2017-04-23T08:46:38.973Z,13.59
2017-04-23T08:47:19.464Z,13.57
2017-04-23T08:48:00.036Z,13.66
2017-04-23T08:48:40.562Z,13.79
2017-04-23T08:49:21.011Z,13.89
2017-04-23T08:50:01.587Z,13.82